Time;durP1;ratioP1;P1;durP2;ratioP2;P2;SDS_P1;SDS_P2;PMS_P1;PMS_P2;Temp;Humidity;BMP_temperature;BMP_pressure;BME280_temperature;BME280_humidity;BME280_pressure;Samples;Min_cycle;Max_cycle;Signal;HPM_P1;HPM_P2
2024/03/22 00:02:19;;;;;;;14.50;9.20;;;;;;;1.34;100.00;100841.52;106067;1257;61433;-54
2024/03/22 00:04:46;;;;;;;19.40;9.10;;;;;;;1.33;100.00;100843.98;105992;1268;74671;-57
2024/03/22 00:07:17;;;;;;;14.70;9.20;;;;;;;1.32;100.00;100837.27;105996;1254;65645;-55
2024/03/22 00:09:45;;;;;;;14.30;10.30;;;;;;;1.32;100.00;100837.08;105948;1259;71191;-55
2024/03/22 00:12:12;;;;;;;19.30;10.20;;;;;;;1.29;100.00;100836.34;105924;1252;62120;-56
2024/03/22 00:14:39;;;;;;;17.20;10.60;;;;;;;1.20;100.00;100832.40;105872;1257;143344;-57
2024/03/22 00:18:51;;;;;;;17.80;9.40;;;;;;;1.07;100.00;100889.94;102619;1294;600316;-55
2024/03/22 00:21:18;;;;;;;20.00;8.50;;;;;;;1.03;100.00;100883.17;105102;1265;60871;-54
2024/03/22 00:23:45;;;;;;;18.10;8.60;;;;;;;1.02;100.00;100875.23;105125;1276;59472;-55
2024/03/22 00:26:12;;;;;;;15.90;9.40;;;;;;;1.00;100.00;100869.91;105011;1267;73619;-55
2024/03/22 00:28:39;;;;;;;19.40;9.30;;;;;;;0.94;100.00;100863.14;105193;1269;65250;-55
2024/03/22 00:31:07;;;;;;;14.30;8.10;;;;;;;0.89;100.00;100856.38;105040;1271;72727;-55
2024/03/22 00:33:34;;;;;;;15.20;8.40;;;;;;;0.91;100.00;100852.17;105029;1280;189072;-55
2024/03/22 00:36:01;;;;;;;22.70;10.40;;;;;;;0.95;100.00;100848.64;105315;1264;59635;-56
2024/03/22 00:38:29;;;;;;;17.70;10.20;;;;;;;0.97;100.00;100847.08;105205;1266;73117;-56
2024/03/22 00:40:56;;;;;;;20.50;10.00;;;;;;;0.97;100.00;100842.66;105317;1268;65775;-55
2024/03/22 00:43:23;;;;;;;18.40;10.10;;;;;;;0.96;100.00;100842.66;105144;1265;72421;-56
2024/03/22 00:45:50;;;;;;;15.10;9.70;;;;;;;0.93;100.00;100839.63;105146;1265;60588;-56
2024/03/22 00:48:18;;;;;;;21.20;10.70;;;;;;;0.90;100.00;100832.52;105204;1268;60566;-55
2024/03/22 00:50:45;;;;;;;21.30;9.40;;;;;;;0.87;100.00;100833.56;106035;1257;73887;-56
2024/03/22 00:53:12;;;;;;;14.80;9.50;;;;;;;0.86;100.00;100828.60;105872;1263;67039;-55
2024/03/22 00:55:39;;;;;;;16.50;10.20;;;;;;;0.86;100.00;100825.95;105840;1258;72777;-56
2024/03/22 00:58:07;;;;;;;13.50;8.70;;;;;;;0.87;100.00;100823.13;105897;1257;60563;-57
2024/03/22 01:00:34;;;;;;;13.40;8.50;;;;;;;0.87;100.00;100821.89;105973;1253;60300;-57
2024/03/22 01:03:01;;;;;;;14.00;8.50;;;;;;;0.89;100.00;100822.63;105874;1253;72613;-57
2024/03/22 01:05:28;;;;;;;12.20;7.00;;;;;;;0.89;100.00;100816.09;105913;1258;67241;-55
2024/03/22 01:07:55;;;;;;;9.70;6.60;;;;;;;0.91;100.00;100816.11;105939;1261;71444;-56
2024/03/22 01:10:22;;;;;;;16.00;7.60;;;;;;;0.93;100.00;100815.77;106082;1254;60933;-58
2024/03/22 01:12:49;;;;;;;21.10;6.70;;;;;;;0.97;100.00;100813.85;106002;1257;59762;-57
2024/03/22 01:15:17;;;;;;;11.30;7.40;;;;;;;1.00;100.00;100812.11;106013;1257;72676;-56
2024/03/22 01:17:44;;;;;;;16.20;6.60;;;;;;;1.03;100.00;100812.48;105915;1256;66948;-57
2024/03/22 01:20:11;;;;;;;11.90;7.80;;;;;;;1.05;100.00;100813.04;106001;1256;71441;-55
2024/03/22 01:22:38;;;;;;;13.70;8.20;;;;;;;1.07;100.00;100809.52;106021;1258;60522;-55
2024/03/22 01:25:06;;;;;;;17.30;8.80;;;;;;;1.06;100.00;100809.32;106034;1259;60482;-55
2024/03/22 01:27:33;;;;;;;12.90;8.30;;;;;;;1.03;100.00;100809.64;106083;1257;73905;-54
2024/03/22 01:30:00;;;;;;;17.70;9.10;;;;;;;1.00;100.00;100806.63;105979;1257;66910;-56
2024/03/22 01:32:27;;;;;;;15.30;9.70;;;;;;;0.96;100.00;100807.30;106016;1257;70667;-55
2024/03/22 01:34:54;;;;;;;12.40;8.80;;;;;;;0.91;100.00;100800.02;105999;1254;60488;-55
2024/03/22 01:37:21;;;;;;;12.10;7.90;;;;;;;0.83;100.00;100801.55;105953;1257;61355;-56
2024/03/22 01:39:49;;;;;;;15.90;7.50;;;;;;;0.74;100.00;100800.61;106296;1257;74284;-55
2024/03/22 01:42:16;;;;;;;12.10;7.30;;;;;;;0.70;100.00;100797.56;106308;1253;67456;-57
2024/03/22 01:44:43;;;;;;;12.40;7.00;;;;;;;0.67;100.00;100799.84;105903;1261;72640;-56
2024/03/22 01:47:10;;;;;;;11.80;7.10;;;;;;;0.65;100.00;100797.89;105970;1253;60476;-55
2024/03/22 01:49:37;;;;;;;9.60;7.90;;;;;;;0.67;100.00;100796.31;105785;1253;60663;-55
2024/03/22 01:52:05;;;;;;;11.60;6.30;;;;;;;0.70;100.00;100795.79;105961;1257;73826;-56
2024/03/22 01:54:32;;;;;;;13.60;6.10;;;;;;;0.72;100.00;100793.35;105986;1253;67127;-54
2024/03/22 01:56:59;;;;;;;9.50;5.70;;;;;;;0.76;100.00;100791.44;106070;1257;73131;-54
2024/03/22 01:59:26;;;;;;;8.60;5.30;;;;;;;0.80;100.00;100793.92;105956;1259;60657;-56
2024/03/22 02:01:53;;;;;;;10.50;7.00;;;;;;;0.82;100.00;100794.30;105942;1261;60524;-54
2024/03/22 02:04:20;;;;;;;16.50;7.70;;;;;;;0.83;100.00;100793.96;105990;1257;73972;-56
2024/03/22 02:06:48;;;;;;;12.40;6.90;;;;;;;0.80;100.00;100793.39;105995;1266;66586;-54
2024/03/22 02:09:15;;;;;;;9.50;6.90;;;;;;;0.76;100.00;100792.14;106025;1258;73572;-56
2024/03/22 02:11:42;;;;;;;9.20;6.90;;;;;;;0.73;100.00;100792.64;105935;1254;60469;-54
2024/03/22 02:14:09;;;;;;;10.50;7.30;;;;;;;0.70;100.00;100788.73;105945;1253;60491;-57
2024/03/22 02:16:39;;;;;;;13.10;8.50;;;;;;;0.69;100.00;100781.46;106107;1266;72797;-54
2024/03/22 02:19:07;;;;;;;15.30;7.70;;;;;;;0.65;100.00;100785.70;108964;1252;67061;-56
2024/03/22 02:21:34;;;;;;;9.60;6.80;;;;;;;0.64;100.00;100780.38;109101;1253;72677;-54
2024/03/22 02:24:02;;;;;;;11.80;6.80;;;;;;;0.61;100.00;100781.23;109004;1254;59917;-54
2024/03/22 02:26:29;;;;;;;11.60;7.50;;;;;;;0.59;100.00;100780.52;109023;1253;60084;-56
2024/03/22 02:28:56;;;;;;;14.00;6.40;;;;;;;0.54;100.00;100780.45;109084;1253;72661;-56
2024/03/22 02:31:25;;;;;;;16.00;6.20;;;;;;;0.47;100.00;100777.05;109231;1253;65699;-54
2024/03/22 02:33:52;;;;;;;8.70;5.90;;;;;;;0.43;100.00;100776.48;109077;1254;70830;-55
2024/03/22 02:36:19;;;;;;;10.80;4.90;;;;;;;0.43;100.00;100772.07;109179;1253;59626;-55
2024/03/22 02:38:46;;;;;;;7.40;5.30;;;;;;;0.46;100.00;100772.45;109083;1253;62173;-54
2024/03/22 02:41:14;;;;;;;15.60;5.80;;;;;;;0.50;100.00;100771.97;109180;1253;72707;-54
2024/03/22 02:43:41;;;;;;;7.80;6.50;;;;;;;0.56;100.00;100772.19;109180;1253;66108;-55
2024/03/22 02:46:08;;;;;;;14.30;8.30;;;;;;;0.58;100.00;100771.33;109155;1253;73160;-55
2024/03/22 02:48:35;;;;;;;9.90;7.40;;;;;;;0.58;100.00;100771.69;109061;1253;59181;-55
2024/03/22 02:51:02;;;;;;;13.70;9.00;;;;;;;0.58;100.00;100768.85;109101;1253;60160;-54
2024/03/22 02:53:29;;;;;;;13.00;8.70;;;;;;;0.57;100.00;100771.51;109064;1254;73946;-56
2024/03/22 02:56:00;;;;;;;15.80;9.40;;;;;;;0.56;100.00;100769.89;109020;1253;66694;-56
2024/03/22 02:58:28;;;;;;;13.90;9.30;;;;;;;0.54;100.00;100768.28;108409;1254;71458;-53
2024/03/22 03:00:55;;;;;;;17.80;9.80;;;;;;;0.54;100.00;100769.15;106022;1253;60852;-52
2024/03/22 03:03:23;;;;;;;12.70;10.00;;;;;;;0.52;100.00;100764.73;105941;1260;61249;-52
2024/03/22 03:05:50;;;;;;;17.90;10.40;;;;;;;0.48;100.00;100764.70;105911;1253;72687;-52
2024/03/22 03:08:17;;;;;;;9.80;8.20;;;;;;;0.45;100.00;100761.67;105938;1260;67376;-52
2024/03/22 03:10:45;;;;;;;14.40;8.40;;;;;;;0.45;100.00;100763.60;105926;1260;71759;-52
2024/03/22 03:13:12;;;;;;;16.90;8.10;;;;;;;0.46;100.00;100759.91;105988;1257;61457;-53
2024/03/22 03:15:40;;;;;;;16.10;8.60;;;;;;;0.47;100.00;100758.87;105935;1253;60164;-54
2024/03/22 03:18:07;;;;;;;15.00;8.70;;;;;;;0.46;100.00;100757.79;105925;1258;73799;-54
2024/03/22 03:20:34;;;;;;;17.60;9.30;;;;;;;0.39;100.00;100758.63;105934;1254;65793;-53
2024/03/22 03:23:01;;;;;;;18.70;9.80;;;;;;;0.32;100.00;100754.86;105896;1262;72694;-53
2024/03/22 03:25:29;;;;;;;14.40;8.90;;;;;;;0.29;100.00;100755.00;106227;1257;60373;-53
2024/03/22 03:27:56;;;;;;;17.80;10.60;;;;;;;0.29;100.00;100752.89;105921;1258;60391;-53
2024/03/22 03:30:23;;;;;;;14.80;8.80;;;;;;;0.27;100.00;100750.20;105884;1255;73938;-55
2024/03/22 03:32:50;;;;;;;16.00;10.10;;;;;;;0.24;100.00;100751.43;105942;1255;66945;-53
2024/03/22 03:35:17;;;;;;;17.90;10.00;;;;;;;0.23;100.00;100757.24;105912;1255;72753;-55
2024/03/22 03:37:44;;;;;;;19.70;9.30;;;;;;;0.20;100.00;100754.20;105838;1258;60668;-54
2024/03/22 03:40:11;;;;;;;17.90;9.30;;;;;;;0.17;100.00;100754.35;105880;1261;60791;-54
2024/03/22 03:42:39;;;;;;;12.60;9.30;;;;;;;0.15;100.00;100752.58;105895;1256;73980;-55
2024/03/22 03:45:06;;;;;;;13.20;8.80;;;;;;;0.14;100.00;100750.44;105899;1256;66515;-53
2024/03/22 03:47:34;;;;;;;15.70;10.60;;;;;;;0.14;100.00;100749.91;105878;1262;70679;-53
2024/03/22 03:50:01;;;;;;;15.50;8.50;;;;;;;0.15;100.00;100750.45;105806;1260;61945;-57
2024/03/22 03:52:28;;;;;;;16.10;9.30;;;;;;;0.16;100.00;100751.00;105999;1258;59630;-52
2024/03/22 03:54:55;;;;;;;17.30;9.10;;;;;;;0.17;100.00;100752.24;105847;1259;73943;-53
2024/03/22 03:57:22;;;;;;;16.80;9.80;;;;;;;0.19;100.00;100749.42;105961;1259;67221;-54
2024/03/22 03:59:49;;;;;;;18.00;9.20;;;;;;;0.22;100.00;100749.83;105801;1256;70455;-57
2024/03/22 04:02:17;;;;;;;17.80;10.10;;;;;;;0.27;100.00;100749.48;105815;1259;60534;-52
2024/03/22 04:04:44;;;;;;;14.20;9.60;;;;;;;0.29;100.00;100749.87;105871;1269;60496;-56
2024/03/22 04:07:11;;;;;;;14.80;11.00;;;;;;;0.32;100.00;100751.33;105871;1256;74426;-56
2024/03/22 04:09:38;;;;;;;14.80;11.90;;;;;;;0.35;100.00;100751.52;105947;1259;66822;-57
2024/03/22 04:12:05;;;;;;;21.60;13.20;;;;;;;0.36;100.00;100751.00;105953;1257;73097;-57
2024/03/22 04:14:33;;;;;;;24.20;13.70;;;;;;;0.37;100.00;100751.55;105844;1254;61338;-56
2024/03/22 04:17:00;;;;;;;21.10;13.40;;;;;;;0.35;100.00;100750.11;105872;1256;61174;-57
2024/03/22 04:19:27;;;;;;;15.40;11.30;;;;;;;0.32;100.00;100750.27;105927;1253;74631;-58
2024/03/22 04:21:54;;;;;;;19.50;13.20;;;;;;;0.31;100.00;100749.91;105989;1256;64835;-56
2024/03/22 04:24:21;;;;;;;18.40;13.30;;;;;;;0.27;100.00;100751.63;105869;1271;72902;-56
2024/03/22 04:26:48;;;;;;;20.40;12.10;;;;;;;0.23;100.00;100748.59;105902;1256;61316;-57
2024/03/22 04:29:16;;;;;;;17.30;11.90;;;;;;;0.21;100.00;100746.98;105954;1258;62405;-56
2024/03/22 04:31:43;;;;;;;21.60;12.20;;;;;;;0.20;100.00;100745.56;105916;1265;74857;-56
2024/03/22 04:34:10;;;;;;;16.00;9.90;;;;;;;0.23;100.00;100745.95;105939;1258;65495;-56
2024/03/22 04:36:38;;;;;;;16.20;9.40;;;;;;;0.26;100.00;100743.33;106011;1259;71459;-57
2024/03/22 04:39:05;;;;;;;14.70;10.30;;;;;;;0.30;100.00;100742.30;105858;1258;61281;-56
2024/03/22 04:41:32;;;;;;;15.80;9.20;;;;;;;0.37;100.00;100743.77;106013;1261;61427;-56
2024/03/22 04:43:59;;;;;;;10.50;7.90;;;;;;;0.45;100.00;100742.95;105987;1254;74791;-56
2024/03/22 04:46:26;;;;;;;16.80;8.80;;;;;;;0.52;100.00;100744.61;105923;1267;66856;-57
2024/03/22 04:48:53;;;;;;;14.40;9.20;;;;;;;0.61;100.00;100745.74;105943;1259;72668;-56
2024/03/22 04:51:21;;;;;;;21.30;11.00;;;;;;;0.71;100.00;100746.16;105903;1258;61331;-55
2024/03/22 04:53:48;;;;;;;18.40;11.10;;;;;;;0.79;100.00;100749.92;105904;1256;61218;-54
2024/03/22 04:56:15;;;;;;;22.60;11.90;;;;;;;0.83;100.00;100754.03;105994;1256;74627;-54
2024/03/22 04:58:42;;;;;;;15.00;10.50;;;;;;;0.84;100.00;100751.56;105901;1254;66719;-54
2024/03/22 05:01:11;;;;;;;15.60;11.20;;;;;;;0.85;100.00;100756.87;105867;1261;71947;-55
2024/03/22 05:03:38;;;;;;;20.80;11.80;;;;;;;0.91;100.00;100754.25;106542;1258;60067;-54
2024/03/22 05:06:06;;;;;;;19.10;10.60;;;;;;;1.02;100.00;100753.44;105948;1254;61134;-55
2024/03/22 05:08:33;;;;;;;14.10;9.40;;;;;;;1.19;100.00;100756.02;106166;1257;74480;-56
2024/03/22 05:11:00;;;;;;;21.40;9.70;;;;;;;1.37;100.00;100755.58;105852;1259;65639;-56
2024/03/22 05:13:27;;;;;;;15.30;9.90;;;;;;;1.51;100.00;100760.95;105898;1257;70646;-56
2024/03/22 05:15:54;;;;;;;16.20;8.40;;;;;;;1.60;100.00;100762.23;105898;1256;61429;-56
2024/03/22 05:18:22;;;;;;;14.40;9.40;;;;;;;1.71;100.00;100758.71;105978;1257;62135;-56
2024/03/22 05:20:49;;;;;;;15.40;10.10;;;;;;;1.86;100.00;100759.48;105999;1256;74738;-57
2024/03/22 05:23:18;;;;;;;13.50;8.50;;;;;;;2.01;100.00;100760.77;105875;1259;68964;-56
2024/03/22 05:25:45;;;;;;;14.00;8.80;;;;;;;2.14;100.00;100766.27;105905;1258;72581;-57
2024/03/22 05:28:12;;;;;;;17.20;10.60;;;;;;;2.27;100.00;100762.05;105848;1262;61286;-56
2024/03/22 05:30:39;;;;;;;15.00;10.70;;;;;;;2.39;100.00;100760.64;106305;1259;61173;-58
2024/03/22 05:33:06;;;;;;;18.70;13.80;;;;;;;2.49;100.00;100761.19;106213;1269;73844;-57
2024/03/22 05:35:34;;;;;;;23.90;13.60;;;;;;;2.61;100.00;100760.47;105992;1258;66890;-57
2024/03/22 05:38:01;;;;;;;23.10;13.70;;;;;;;2.73;100.00;100759.05;105941;1262;72689;-56
2024/03/22 05:40:28;;;;;;;16.70;12.20;;;;;;;2.84;100.00;100757.27;105950;1258;62007;-56
2024/03/22 05:42:56;;;;;;;21.10;13.60;;;;;;;2.96;100.00;100757.44;105982;1258;61362;-56
2024/03/22 05:45:23;;;;;;;18.70;13.40;;;;;;;3.09;100.00;100757.95;106096;1258;75130;-57
2024/03/22 05:47:50;;;;;;;20.60;12.90;;;;;;;3.21;100.00;100760.75;106230;1256;68695;-57
2024/03/22 05:50:17;;;;;;;24.10;15.90;;;;;;;3.34;100.00;100761.25;106295;1256;71780;-57
2024/03/22 05:52:44;;;;;;;25.70;16.80;;;;;;;3.50;100.00;100768.48;106098;1255;61169;-57
2024/03/22 05:55:12;;;;;;;26.30;18.60;;;;;;;3.66;100.00;100769.13;106101;1255;61298;-57
2024/03/22 05:57:39;;;;;;;35.80;22.00;;;;;;;3.82;100.00;100771.36;105997;1259;73134;-57
2024/03/22 06:00:07;;;;;;;24.30;16.50;;;;;;;4.00;100.00;100776.59;106003;1256;66961;-57
2024/03/22 06:02:35;;;;;;;25.90;17.10;;;;;;;4.21;100.00;100778.95;105984;1263;73208;-58
2024/03/22 06:05:02;;;;;;;32.70;21.60;;;;;;;4.39;100.00;100779.19;105938;1258;61881;-57
2024/03/22 06:07:30;;;;;;;29.90;23.20;;;;;;;4.55;100.00;100782.81;106759;1256;61274;-57
2024/03/22 06:09:57;;;;;;;34.30;21.80;;;;;;;4.69;100.00;100789.28;105958;1259;73578;-58
2024/03/22 06:12:27;;;;;;;32.50;21.30;;;;;;;4.83;100.00;100789.70;108855;1256;66038;-57
2024/03/22 06:14:54;;;;;;;33.60;21.80;;;;;;;4.98;100.00;100791.70;106963;1258;72989;-58
2024/03/22 06:17:21;;;;;;;37.20;23.80;;;;;;;5.11;100.00;100794.07;105930;1252;61314;-59
2024/03/22 06:19:48;;;;;;;38.90;24.00;;;;;;;5.22;100.00;100796.80;106026;1254;61186;-59
2024/03/22 06:22:16;;;;;;;39.70;23.00;;;;;;;5.34;100.00;100797.92;106042;1254;73443;-59
2024/03/22 06:24:44;;;;;;;36.50;23.50;;;;;;;5.44;100.00;100797.46;106182;1260;66943;-58
2024/03/22 06:27:13;;;;;;;32.30;23.00;;;;;;;5.55;100.00;100798.59;106119;1255;71429;-59
2024/03/22 06:29:40;;;;;;;28.40;19.80;;;;;;;5.65;100.00;100801.85;105972;1260;62136;-59
2024/03/22 06:32:07;;;;;;;28.70;17.90;;;;;;;5.77;100.00;100799.77;106040;1263;62043;-59
2024/03/22 06:34:35;;;;;;;28.60;17.60;;;;;;;5.89;100.00;100803.02;106360;1254;74619;-59
2024/03/22 06:37:02;;;;;;;31.20;18.60;;;;;;;6.01;100.00;100812.30;106083;1257;65983;-59
2024/03/22 06:39:30;;;;;;;29.90;20.20;;;;;;;6.14;100.00;100813.04;106002;1264;72865;-59
2024/03/22 06:41:57;;;;;;;30.20;20.50;;;;;;;6.28;100.00;100816.94;105965;1255;61459;-58
2024/03/22 06:44:24;;;;;;;33.60;19.70;;;;;;;6.39;100.00;100816.42;106056;1255;62158;-58
2024/03/22 06:46:51;;;;;;;26.60;18.00;;;;;;;6.50;100.00;100816.80;106040;1259;76235;-58
2024/03/22 06:49:18;;;;;;;30.40;19.00;;;;;;;6.60;100.00;100819.14;105951;1259;65663;-58
2024/03/22 06:51:45;;;;;;;24.50;15.10;;;;;;;6.70;100.00;100818.83;105977;1260;72754;-58
2024/03/22 06:54:13;;;;;;;22.60;15.20;;;;;;;6.79;100.00;100821.52;106024;1254;62175;-58
2024/03/22 06:56:40;;;;;;;19.60;15.10;;;;;;;6.87;100.00;100822.46;106227;1257;61636;-59
2024/03/22 06:59:08;;;;;;;23.70;16.70;;;;;;;6.96;100.00;100829.29;106088;1257;74741;-59
2024/03/22 07:01:35;;;;;;;26.50;16.10;;;;;;;7.03;100.00;100830.05;106154;1260;67351;-58
2024/03/22 07:04:02;;;;;;;33.10;19.40;;;;;;;7.10;100.00;100830.83;106035;1254;72374;-58
2024/03/22 07:06:30;;;;;;;33.70;23.10;;;;;;;7.17;100.00;100834.80;106019;1260;61352;-59
2024/03/22 07:08:57;;;;;;;35.30;24.30;;;;;;;7.25;100.00;100833.61;106097;1257;61484;-59
2024/03/22 07:11:24;;;;;;;37.80;26.10;;;;;;;7.32;100.00;100830.25;106010;1260;74636;-59
2024/03/22 07:13:51;;;;;;;38.50;26.40;;;;;;;7.39;100.00;100829.95;106011;1254;67254;-59
2024/03/22 07:16:19;;;;;;;37.90;26.50;;;;;;;7.47;100.00;100832.30;106077;1258;72725;-60
2024/03/22 07:18:48;;;;;;;31.10;22.00;;;;;;;7.57;100.00;100840.15;105989;1259;62243;-59
2024/03/22 07:21:15;;;;;;;35.80;22.40;;;;;;;7.66;100.00;100844.10;106026;1259;61359;-58
2024/03/22 07:23:42;;;;;;;31.00;22.10;;;;;;;7.75;100.00;100843.38;105919;1253;75140;-59
2024/03/22 07:26:10;;;;;;;28.20;19.30;;;;;;;7.85;100.00;100844.09;105926;1256;66752;-58
2024/03/22 07:28:37;;;;;;;24.70;16.80;;;;;;;7.97;100.00;100848.11;105922;1259;72789;-58
2024/03/22 07:31:04;;;;;;;19.80;13.50;;;;;;;8.11;100.00;100851.05;105806;1269;61339;-58
2024/03/22 07:33:32;;;;;;;13.70;8.70;;;;;;;8.22;100.00;100852.77;105963;1258;61379;-59
2024/03/22 07:36:03;;;;;;;10.30;6.60;;;;;;;8.31;100.00;100852.95;105958;1258;73977;-58
2024/03/22 07:38:30;;;;;;;12.00;6.40;;;;;;;8.39;100.00;100854.95;106459;1258;65283;-59
2024/03/22 07:40:58;;;;;;;7.10;5.50;;;;;;;8.46;100.00;100859.45;105838;1256;73429;-59
2024/03/22 07:43:25;;;;;;;10.60;6.00;;;;;;;8.55;100.00;100860.86;105866;1272;61350;-59
2024/03/22 07:45:52;;;;;;;13.10;8.10;;;;;;;8.66;100.00;100862.94;105822;1259;61443;-58
2024/03/22 07:48:19;;;;;;;9.70;8.60;;;;;;;8.76;100.00;100859.85;105794;1257;72682;-59
2024/03/22 07:50:47;;;;;;;11.60;7.50;;;;;;;8.83;100.00;100856.44;105947;1255;67518;-58
2024/03/22 07:53:15;;;;;;;7.70;6.90;;;;;;;8.91;100.00;100857.17;106644;1259;72942;-59
2024/03/22 07:55:42;;;;;;;6.90;6.10;;;;;;;8.98;100.00;100856.27;106778;1256;60959;-59
2024/03/22 07:58:09;;;;;;;10.70;7.00;;;;;;;9.07;100.00;100856.95;105857;1268;62279;-58
2024/03/22 08:00:36;;;;;;;10.40;8.00;;;;;;;9.14;100.00;100859.46;105911;1259;75071;-58
2024/03/22 08:03:04;;;;;;;14.70;8.20;;;;;;;9.20;100.00;100859.29;105870;1255;67284;-58
2024/03/22 08:05:31;;;;;;;10.10;7.60;;;;;;;9.27;100.00;100867.18;107493;1258;71588;-59
2024/03/22 08:07:58;;;;;;;8.10;6.60;;;;;;;9.32;100.00;100864.91;105805;1259;61342;-58
2024/03/22 08:10:26;;;;;;;12.50;8.80;;;;;;;9.36;100.00;100865.88;105849;1260;62240;-58
2024/03/22 08:12:53;;;;;;;7.80;5.20;;;;;;;9.41;100.00;100867.73;106887;1256;73518;-56
2024/03/22 08:15:20;;;;;;;9.80;5.60;;;;;;;9.46;100.00;100866.31;105896;1257;66859;-58
2024/03/22 08:17:48;;;;;;;7.90;5.20;;;;;;;9.55;100.00;100864.84;105865;1261;73165;-54
2024/03/22 08:20:15;;;;;;;7.40;4.40;;;;;;;9.66;100.00;100867.23;108906;1254;60750;-59
2024/03/22 08:22:42;;;;;;;8.20;3.80;;;;;;;9.76;100.00;100871.25;109088;1254;59173;-57
2024/03/22 08:25:09;;;;;;;6.60;2.70;;;;;;;9.87;100.00;100872.56;108831;1254;77272;-55
2024/03/22 08:27:37;;;;;;;6.30;2.20;;;;;;;9.97;100.00;100872.66;108985;1255;68032;-55
2024/03/22 08:30:24;;;;;;;4.60;1.90;;;;;;;10.08;100.00;100873.05;109036;1254;71469;-55
2024/03/22 08:32:52;;;;;;;5.00;1.70;;;;;;;10.16;100.00;100872.12;108989;1254;58940;-57
2024/03/22 08:35:19;;;;;;;4.10;1.40;;;;;;;10.22;100.00;100870.35;108913;1253;59320;-56
2024/03/22 08:37:46;;;;;;;3.70;1.70;;;;;;;10.25;100.00;100867.75;108962;1254;75590;-56
2024/03/22 08:40:13;;;;;;;4.60;1.20;;;;;;;10.31;100.00;100874.41;109056;1256;66244;-55
2024/03/22 08:42:41;;;;;;;4.70;1.20;;;;;;;10.41;100.00;100874.98;108933;1258;72324;-59
2024/03/22 08:45:09;;;;;;;2.80;1.40;;;;;;;10.55;100.00;100874.55;108943;1254;59725;-55
2024/03/22 08:47:36;;;;;;;4.90;1.10;;;;;;;10.69;100.00;100876.28;106923;1260;60031;-56
2024/03/22 08:50:04;;;;;;;2.60;1.20;;;;;;;10.78;100.00;100873.31;105883;1262;73470;-56
2024/03/22 08:52:34;;;;;;;3.20;1.20;;;;;;;10.89;100.00;100871.89;106300;1259;66015;-55
2024/03/22 08:55:01;;;;;;;4.50;2.10;;;;;;;11.00;100.00;100877.29;107118;1258;71445;-56
2024/03/22 08:57:28;;;;;;;5.50;1.90;;;;;;;11.10;100.00;100887.00;107659;1258;63089;-59
2024/03/22 08:59:56;;;;;;;7.80;2.60;;;;;;;11.21;100.00;100890.77;106320;1260;61109;-56
2024/03/22 09:02:24;;;;;;;4.20;2.30;;;;;;;11.30;100.00;100890.48;105927;1259;74536;-55
2024/03/22 09:04:53;;;;;;;5.80;2.80;;;;;;;11.39;100.00;100890.89;105880;1259;69586;-55
2024/03/22 09:07:20;;;;;;;5.90;2.60;;;;;;;11.47;100.00;100896.23;105841;1260;72728;-54
2024/03/22 09:09:47;;;;;;;9.00;1.90;;;;;;;11.51;100.00;100901.64;105922;1260;61290;-56
2024/03/22 09:12:14;;;;;;;4.20;1.50;;;;;;;11.56;100.00;100900.39;105867;1267;61305;-56
2024/03/22 09:14:42;;;;;;;4.60;1.60;;;;;;;11.61;100.00;100899.48;105879;1275;76753;-55
2024/03/22 09:17:09;;;;;;;3.70;2.00;;;;;;;11.70;100.00;100900.80;105961;1260;66110;-58
2024/03/22 09:19:36;;;;;;;4.70;2.20;;;;;;;11.78;100.00;100902.55;106173;1260;72737;-58
2024/03/22 09:22:04;;;;;;;6.00;2.90;;;;;;;11.84;100.00;100904.81;105949;1256;61406;-58
2024/03/22 09:24:31;;;;;;;7.70;2.60;;;;;;;11.83;100.00;100910.06;105895;1260;61167;-53
2024/03/22 09:26:58;;;;;;;6.50;2.70;;;;;;;11.77;100.00;100902.58;105936;1269;73606;-56
2024/03/22 09:29:26;;;;;;;6.50;3.00;;;;;;;11.71;100.00;100903.65;105916;1259;67259;-57
2024/03/22 09:31:53;;;;;;;5.40;3.40;;;;;;;11.66;100.00;100903.11;105953;1271;74829;-56
2024/03/22 09:34:20;;;;;;;3.80;2.40;;;;;;;11.60;100.00;100900.24;106065;1260;61427;-54
2024/03/22 09:36:47;;;;;;;5.90;3.20;;;;;;;11.57;100.00;100898.40;106006;1262;61494;-54
2024/03/22 09:39:14;;;;;;;7.00;3.60;;;;;;;11.55;100.00;100893.06;106015;1269;74670;-56
2024/03/22 09:41:42;;;;;;;6.00;3.80;;;;;;;11.53;100.00;100888.26;106089;1260;66765;-58
2024/03/22 09:44:14;;;;;;;7.60;3.60;;;;;;;11.46;100.00;100890.32;106240;1268;73727;-55
2024/03/22 09:46:41;;;;;;;7.00;3.50;;;;;;;11.42;100.00;100885.40;105890;1269;61017;-55
2024/03/22 09:49:10;;;;;;;8.30;3.00;;;;;;;11.43;100.00;100883.95;106133;1258;61906;-57
2024/03/22 09:51:37;;;;;;;2.80;2.60;;;;;;;11.46;100.00;100886.16;105970;1259;73425;-53
2024/03/22 09:54:05;;;;;;;4.10;2.70;;;;;;;11.53;100.00;100889.16;106129;1258;67423;-55
2024/03/22 09:56:32;;;;;;;5.80;3.80;;;;;;;11.60;100.00;100893.76;105928;1263;71526;-54
2024/03/22 09:59:00;;;;;;;7.40;2.20;;;;;;;11.66;100.00;100885.83;105896;1270;61168;-56
2024/03/22 10:01:27;;;;;;;7.70;2.90;;;;;;;11.71;100.00;100881.52;106030;1259;61261;-61
2024/03/22 10:03:54;;;;;;;4.60;3.20;;;;;;;11.79;100.00;100877.16;106000;1260;74720;-54
2024/03/22 10:06:22;;;;;;;8.90;2.70;;;;;;;11.81;100.00;100874.74;105896;1255;67792;-58
2024/03/22 10:08:49;;;;;;;3.60;1.50;;;;;;;11.73;100.00;100875.88;105765;1264;72149;-55
2024/03/22 10:11:16;;;;;;;7.50;2.20;;;;;;;11.74;100.00;100876.20;105978;1271;61311;-56
2024/03/22 10:13:44;;;;;;;5.80;2.40;;;;;;;11.81;100.00;100882.84;106108;1254;61267;-56
2024/03/22 10:16:12;;;;;;;9.10;1.80;;;;;;;11.86;100.00;100876.70;106228;1258;73713;-55
2024/03/22 10:18:39;;;;;;;5.60;3.00;;;;;;;11.90;100.00;100870.65;106031;1255;66896;-56
2024/03/22 10:21:06;;;;;;;4.40;2.60;;;;;;;11.93;100.00;100868.38;106129;1269;73125;-53
2024/03/22 10:23:33;;;;;;;6.20;2.30;;;;;;;11.95;100.00;100868.48;106106;1257;61373;-56
2024/03/22 10:26:01;;;;;;;4.50;3.00;;;;;;;11.96;100.00;100864.65;106079;1259;61264;-54
2024/03/22 10:28:28;;;;;;;5.50;1.90;;;;;;;11.95;100.00;100868.66;106030;1259;73452;-57
2024/03/22 10:30:55;;;;;;;4.90;2.70;;;;;;;11.92;100.00;100866.44;106050;1258;67063;-60
2024/03/22 10:33:23;;;;;;;8.40;2.00;;;;;;;11.88;100.00;100869.64;105993;1254;72676;-57
2024/03/22 10:35:51;;;;;;;3.10;2.30;;;;;;;11.86;100.00;100866.47;106562;1258;61534;-57
2024/03/22 10:38:20;;;;;;;3.30;2.90;;;;;;;11.84;100.00;100863.45;106601;1256;61420;-55
2024/03/22 10:40:47;;;;;;;5.30;3.60;;;;;;;11.83;100.00;100862.95;106073;1258;73460;-56
2024/03/22 10:43:15;;;;;;;4.50;2.70;;;;;;;11.80;100.00;100859.86;106239;1259;66069;-55
2024/03/22 10:45:43;;;;;;;9.00;2.50;;;;;;;11.70;100.00;100855.84;106432;1260;73861;-58
2024/03/22 10:48:11;;;;;;;8.90;3.30;;;;;;;11.60;100.00;100853.33;106059;1267;61275;-54
2024/03/22 10:50:39;;;;;;;3.70;3.00;;;;;;;11.52;100.00;100843.17;105931;1269;61875;-55
2024/03/22 10:53:07;;;;;;;2.60;1.90;;;;;;;11.45;100.00;100836.79;105889;1269;75268;-56
2024/03/22 10:55:37;;;;;;;3.50;1.40;;;;;;;11.40;100.00;100835.13;105990;1268;65832;-55
2024/03/22 10:58:05;;;;;;;3.50;1.20;;;;;;;11.37;100.00;100833.80;106050;1260;72756;-54
2024/03/22 11:00:33;;;;;;;1.30;0.90;;;;;;;11.36;100.00;100829.90;106077;1264;61267;-55
2024/03/22 11:03:04;;;;;;;4.00;1.70;;;;;;;11.34;100.00;100830.13;106024;1268;61352;-56
2024/03/22 11:05:31;;;;;;;3.20;2.40;;;;;;;11.32;100.00;100827.69;106023;1259;73484;-55
2024/03/22 11:08:00;;;;;;;5.10;1.90;;;;;;;11.30;100.00;100823.80;105955;1259;69770;-59
2024/03/22 11:10:33;;;;;;;3.10;2.00;;;;;;;11.27;100.00;100818.88;108958;1254;71884;-56